Time;durP1;ratioP1;P1;durP2;ratioP2;P2;SDS_P1;SDS_P2;PMS_P1;PMS_P2;Temp;Humidity;BMP_temperature;BMP_pressure;BME280_temperature;BME280_humidity;BME280_pressure;Samples;Min_cycle;Max_cycle;Signal;HPM_P1;HPM_P2
2022/02/07 00:03:51;;;;;;;0.98;0.50;;;;;;;;;;6222151;22;19984;-83
2022/02/07 00:06:13;;;;;;;;;;;;;;;;;;6243844;22;19989;-84
2022/02/07 00:08:44;;;;;;;2.35;0.35;;;;;;;;;;6244799;22;19903;-84
2022/02/07 00:11:21;;;;;;;1.17;0.50;;;;;;;;;;6244998;22;19991;-84
2022/02/07 00:13:47;;;;;;;1.00;0.70;;;;;;;;;;6218774;23;20013;-82
2022/02/07 00:16:16;;;;;;;2.08;0.50;;;;;;;;;;6219086;23;20004;-84
2022/02/07 00:18:44;;;;;;;1.20;0.63;;;;;;;;;;6245117;22;19989;-83
2022/02/07 00:21:19;;;;;;;3.00;0.50;;;;;;;;;;6245228;22;19981;-83
2022/02/07 00:26:30;;;;;;;1.10;0.55;;;;;;;;;;6244896;23;19997;-82
2022/02/07 00:28:55;;;;;;;1.35;0.57;;;;;;;;;;6175054;22;20276;-78
2022/02/07 00:44:20;;;;;;;0.50;0.30;;;;;;;;;;6209994;22;20060;-83
2022/02/07 00:46:57;;;;;;;1.92;0.40;;;;;;;;;;6158553;22;20004;-82
2022/02/07 00:49:23;;;;;;;0.95;0.20;;;;;;;;;;6246433;23;19988;-83
2022/02/07 00:51:48;;;;;;;0.60;0.30;;;;;;;;;;6275121;23;19991;-83
2022/02/07 00:59:24;;;;;;;0.45;0.30;;;;;;;;;;6217705;22;20005;-83
2022/02/07 01:01:50;;;;;;;3.10;0.70;;;;;;;;;;6184563;22;20064;-84
2022/02/07 01:06:53;;;;;;;2.13;0.50;;;;;;;;;;6178901;22;20020;-81
2022/02/07 01:18:30;;;;;;;4.88;0.65;;;;;;;;;;6255105;23;19997;-83
2022/02/07 01:20:45;;;;;;;3.75;0.85;;;;;;;;;;6233238;23;20044;-83
2022/02/07 01:23:24;;;;;;;2.80;0.63;;;;;;;;;;6151711;22;20047;-80
2022/02/07 01:47:40;;;;;;;2.63;0.50;;;;;;;;;;6243718;23;20019;-83
2022/02/07 01:52:48;;;;;;;1.85;0.40;;;;;;;;;;6244163;23;19993;-83
2022/02/07 01:55:31;;;;;;;6.72;0.60;;;;;;;;;;6217822;23;20087;-84
2022/02/07 01:57:59;;;;;;;0.80;0.40;;;;;;;;;;6244447;23;19984;-83
2022/02/07 02:00:24;;;;;;;4.82;1.48;;;;;;;;;;6215519;23;20004;-80
2022/02/07 02:02:50;;;;;;;2.90;0.40;;;;;;;;;;6240261;23;19988;-83
2022/02/07 02:05:15;;;;;;;2.03;0.47;;;;;;;;;;6244469;23;20015;-83
2022/02/07 02:07:42;;;;;;;1.92;0.40;;;;;;;;;;6242142;23;20001;-83
2022/02/07 02:10:08;;;;;;;4.38;0.38;;;;;;;;;;6243436;23;20426;-82
2022/02/07 02:12:51;;;;;;;2.63;0.47;;;;;;;;;;6213758;23;20020;-81
2022/02/07 02:18:28;;;;;;;1.40;0.40;;;;;;;;;;6224325;23;19985;-82
2022/02/07 02:47:03;;;;;;;5.82;0.50;;;;;;;;;;6239160;23;20011;-81
2022/02/07 02:49:33;;;;;;;3.22;0.70;;;;;;;;;;6213394;23;20000;-82
2022/02/07 02:51:58;;;;;;;4.13;0.63;;;;;;;;;;6239847;23;20436;-81
2022/02/07 02:54:23;;;;;;;0.95;0.22;;;;;;;;;;6241277;23;19993;-82
2022/02/07 02:56:50;;;;;;;1.95;0.68;;;;;;;;;;6214586;23;19988;-82
2022/02/07 02:59:16;;;;;;;2.20;0.65;;;;;;;;;;6214396;23;19981;-82
2022/02/07 03:01:44;;;;;;;3.05;0.38;;;;;;;;;;6238191;23;20007;-82
2022/02/07 03:06:45;;;;;;;2.83;0.47;;;;;;;;;;6209471;22;19963;-81
2022/02/07 03:09:14;;;;;;;2.17;0.60;;;;;;;;;;6206662;23;20020;-81
2022/02/07 03:11:39;;;;;;;;;;;;;;;;;;6244612;23;19988;-83
2022/02/07 03:14:05;;;;;;;1.88;0.43;;;;;;;;;;6217629;23;19911;-82
2022/02/07 03:16:39;;;;;;;3.05;0.38;;;;;;;;;;6243635;23;20033;-81
2022/02/07 03:19:11;;;;;;;3.05;0.57;;;;;;;;;;6217676;23;19996;-82
2022/02/07 03:21:37;;;;;;;1.60;0.43;;;;;;;;;;6218312;23;20004;-82
2022/02/07 03:24:06;;;;;;;2.13;0.38;;;;;;;;;;6243879;23;19985;-82
2022/02/07 03:26:38;;;;;;;1.52;0.60;;;;;;;;;;6242979;23;19988;-82
2022/02/07 03:29:04;;;;;;;1.63;0.50;;;;;;;;;;6238989;23;20052;-83
2022/02/07 03:31:29;;;;;;;2.90;0.45;;;;;;;;;;6209902;23;20011;-81
2022/02/07 03:33:54;;;;;;;2.22;0.43;;;;;;;;;;6235860;23;19993;-82
2022/02/07 03:36:20;;;;;;;1.52;0.40;;;;;;;;;;6238883;23;19988;-83
2022/02/07 03:38:46;;;;;;;2.20;0.75;;;;;;;;;;6241301;23;20043;-83
2022/02/07 03:41:12;;;;;;;3.13;0.77;;;;;;;;;;6240384;23;19992;-83
2022/02/07 03:43:37;;;;;;;1.20;0.40;;;;;;;;;;6237670;23;20000;-82
2022/02/07 03:46:03;;;;;;;1.63;0.40;;;;;;;;;;6215597;23;20020;-83
2022/02/07 03:48:28;;;;;;;3.10;0.57;;;;;;;;;;6244913;23;20026;-84
2022/02/07 03:50:56;;;;;;;3.38;0.65;;;;;;;;;;6244437;23;20011;-85
2022/02/07 03:53:22;;;;;;;3.55;0.57;;;;;;;;;;6211252;23;20016;-81
2022/02/07 03:55:47;;;;;;;2.85;0.50;;;;;;;;;;6225102;23;20019;-80
2022/02/07 03:58:12;;;;;;;2.25;0.57;;;;;;;;;;6223265;23;20433;-80
2022/02/07 04:00:39;;;;;;;5.25;0.93;;;;;;;;;;6225487;23;20027;-80
2022/02/07 04:03:07;;;;;;;2.45;0.40;;;;;;;;;;6228372;23;20060;-82
2022/02/07 04:08:05;;;;;;;1.90;0.47;;;;;;;;;;6255809;23;20040;-83
2022/02/07 04:10:37;;;;;;;1.90;0.40;;;;;;;;;;6244060;23;19985;-83
2022/02/07 04:13:04;;;;;;;1.58;0.50;;;;;;;;;;6245043;23;19993;-83
2022/02/07 04:15:32;;;;;;;4.07;0.45;;;;;;;;;;6245685;23;20001;-83
2022/02/07 04:18:02;;;;;;;6.25;0.80;;;;;;;;;;6243897;23;20014;-82
2022/02/07 04:20:28;;;;;;;3.92;0.40;;;;;;;;;;6241274;23;20028;-81
2022/02/07 04:22:53;;;;;;;4.30;0.55;;;;;;;;;;6239934;23;20008;-81
2022/02/07 04:25:18;;;;;;;3.30;0.65;;;;;;;;;;6242161;23;20075;-83
2022/02/07 04:27:44;;;;;;;4.18;0.80;;;;;;;;;;6240624;23;20013;-82
2022/02/07 04:30:09;;;;;;;0.50;0.10;;;;;;;;;;6238384;23;20000;-83
2022/02/07 04:32:34;;;;;;;3.03;0.60;;;;;;;;;;6236395;23;19996;-82
2022/02/07 04:35:00;;;;;;;7.35;0.63;;;;;;;;;;6240222;23;20003;-82
2022/02/07 04:37:28;;;;;;;5.15;0.50;;;;;;;;;;6241951;23;20020;-82
2022/02/07 04:39:54;;;;;;;4.53;0.45;;;;;;;;;;6243603;23;20001;-82
2022/02/07 04:42:21;;;;;;;5.57;0.60;;;;;;;;;;6243014;23;19996;-82
2022/02/07 04:52:58;;;;;;;1.83;0.63;;;;;;;;;;6250270;23;19999;-81
2022/02/07 04:55:38;;;;;;;6.47;0.82;;;;;;;;;;6270809;23;19988;-82
2022/02/07 04:58:35;;;;;;;2.95;0.52;;;;;;;;;;6275763;22;19999;-82
2022/02/07 05:01:31;;;;;;;2.63;0.77;;;;;;;;;;6276061;22;19994;-83
2022/02/07 05:04:04;;;;;;;3.60;0.47;;;;;;;;;;6276011;22;19994;-83
2022/02/07 05:14:45;;;;;;;4.75;0.85;;;;;;;;;;6273052;23;20002;-82
2022/02/07 05:17:13;;;;;;;4.57;0.65;;;;;;;;;;6274280;22;20353;-82
2022/02/07 05:19:38;;;;;;;4.57;0.70;;;;;;;;;;6273818;22;19992;-82
2022/02/07 05:22:03;;;;;;;1.95;0.52;;;;;;;;;;6247284;23;20019;-81
2022/02/07 05:24:28;;;;;;;4.38;0.75;;;;;;;;;;6273793;23;20000;-81
2022/02/07 05:26:54;;;;;;;6.38;0.90;;;;;;;;;;6261475;23;20000;-81
2022/02/07 05:29:19;;;;;;;4.93;0.75;;;;;;;;;;6259407;23;20000;-81
2022/02/07 05:31:44;;;;;;;7.35;0.60;;;;;;;;;;6268751;23;19996;-82
2022/02/07 05:34:10;;;;;;;10.20;1.05;;;;;;;;;;6266426;23;19984;-82
2022/02/07 05:36:41;;;;;;;6.45;0.77;;;;;;;;;;6243736;23;20042;-83
2022/02/07 05:39:07;;;;;;;3.92;0.70;;;;;;;;;;6271654;23;20014;-82
2022/02/07 05:41:32;;;;;;;3.22;0.57;;;;;;;;;;6273238;23;19995;-82
2022/02/07 05:43:57;;;;;;;3.28;0.68;;;;;;;;;;6245760;23;20004;-82
2022/02/07 05:46:26;;;;;;;5.85;0.77;;;;;;;;;;6244418;23;20001;-82
2022/02/07 05:48:51;;;;;;;5.57;0.80;;;;;;;;;;6245469;23;20000;-82
2022/02/07 05:51:17;;;;;;;4.07;0.80;;;;;;;;;;6245202;23;20053;-81
2022/02/07 05:56:17;;;;;;;8.07;0.93;;;;;;;;;;6212409;22;20016;-81
2022/02/07 05:58:42;;;;;;;5.47;1.02;;;;;;;;;;6266101;23;20110;-82
2022/02/07 06:01:08;;;;;;;5.57;0.60;;;;;;;;;;6266060;23;20103;-81
2022/02/07 06:03:33;;;;;;;4.30;1.20;;;;;;;;;;6263150;23;19999;-82
2022/02/07 06:05:58;;;;;;;4.28;0.73;;;;;;;;;;6235518;23;20075;-81
2022/02/07 06:08:24;;;;;;;4.15;0.60;;;;;;;;;;6262778;23;20015;-82
2022/02/07 06:10:49;;;;;;;4.95;0.73;;;;;;;;;;6263473;23;19999;-82
2022/02/07 06:13:19;;;;;;;2.13;0.52;;;;;;;;;;6265268;23;19996;-81
2022/02/07 06:15:45;;;;;;;4.18;0.73;;;;;;;;;;6242130;23;19984;-81
2022/02/07 06:18:13;;;;;;;8.10;0.70;;;;;;;;;;6265467;23;20050;-82
2022/02/07 06:20:38;;;;;;;6.28;0.75;;;;;;;;;;6263525;23;19992;-80
2022/02/07 06:23:04;;;;;;;5.53;0.70;;;;;;;;;;6269450;23;19997;-80
2022/02/07 06:25:29;;;;;;;3.13;0.52;;;;;;;;;;6267500;23;20406;-81
2022/02/07 06:27:54;;;;;;;7.95;1.27;;;;;;;;;;6269432;23;20048;-81
2022/02/07 06:30:20;;;;;;;3.67;0.57;;;;;;;;;;6244219;23;20015;-82
2022/02/07 06:32:46;;;;;;;8.25;1.13;;;;;;;;;;6232928;23;20019;-82
2022/02/07 06:35:11;;;;;;;3.83;0.55;;;;;;;;;;6262496;23;20011;-83
2022/02/07 06:37:42;;;;;;;3.05;0.95;;;;;;;;;;6267958;23;19992;-82
2022/02/07 06:40:10;;;;;;;8.77;1.15;;;;;;;;;;6266836;23;19992;-81
2022/02/07 06:42:41;;;;;;;3.57;0.80;;;;;;;;;;6272165;22;20039;-82
2022/02/07 06:47:42;;;;;;;3.47;0.60;;;;;;;;;;6200031;23;19923;-81
2022/02/07 06:50:08;;;;;;;4.78;0.73;;;;;;;;;;6205666;23;20049;-80
2022/02/07 06:52:33;;;;;;;5.97;1.75;;;;;;;;;;6178450;23;19997;-80
2022/02/07 06:54:58;;;;;;;5.55;0.98;;;;;;;;;;6210928;23;19996;-81
2022/02/07 06:57:24;;;;;;;2.67;0.80;;;;;;;;;;6213672;23;19982;-81
2022/02/07 07:05:07;;;;;;;9.50;1.20;;;;;;;;;;6183954;22;19915;-82
2022/02/07 07:07:32;;;;;;;5.05;1.10;;;;;;;;;;6267683;23;20064;-82
2022/02/07 07:09:58;;;;;;;7.50;0.63;;;;;;;;;;6240651;23;20511;-82
2022/02/07 07:12:23;;;;;;;6.07;1.63;;;;;;;;;;6269306;22;20004;-81
2022/02/07 07:14:56;;;;;;;3.63;0.90;;;;;;;;;;6234004;23;20074;-81
2022/02/07 07:17:22;;;;;;;5.68;0.73;;;;;;;;;;6263956;23;19996;-82
2022/02/07 07:19:47;;;;;;;3.85;0.88;;;;;;;;;;6268066;23;20000;-83
2022/02/07 07:22:14;;;;;;;1.90;0.90;;;;;;;;;;6244550;23;20003;-82
2022/02/07 07:24:40;;;;;;;2.30;1.00;;;;;;;;;;6270166;23;19996;-81
2022/02/07 07:27:07;;;;;;;3.20;1.05;;;;;;;;;;6235198;23;20007;-80
2022/02/07 07:29:36;;;;;;;3.00;1.00;;;;;;;;;;6261011;23;20000;-81
2022/02/07 07:32:04;;;;;;;3.65;1.02;;;;;;;;;;6260639;23;20058;-81
2022/02/07 07:34:30;;;;;;;6.50;1.20;;;;;;;;;;6261157;23;20004;-82
2022/02/07 07:36:56;;;;;;;7.30;1.83;;;;;;;;;;6266335;23;19992;-81
2022/02/07 07:39:21;;;;;;;6.53;2.67;;;;;;;;;;6272172;23;19983;-82
2022/02/07 07:41:47;;;;;;;3.80;1.23;;;;;;;;;;6271865;23;20006;-81
2022/02/07 07:44:17;;;;;;;7.20;1.67;;;;;;;;;;6273241;23;20001;-83
2022/02/07 07:46:43;;;;;;;3.70;1.50;;;;;;;;;;6273039;23;19992;-82
2022/02/07 07:49:12;;;;;;;4.10;1.60;;;;;;;;;;6273287;22;20007;-82
2022/02/07 07:51:45;;;;;;;8.77;1.63;;;;;;;;;;6247755;23;20004;-83
2022/02/07 08:02:15;;;;;;;4.80;1.40;;;;;;;;;;6245267;22;20019;-85
2022/02/07 08:07:22;;;;;;;6.53;1.23;;;;;;;;;;6213822;23;20068;-83
2022/02/07 08:10:19;;;;;;;3.22;1.00;;;;;;;;;;6187845;23;20032;-83
2022/02/07 08:12:48;;;;;;;7.45;1.02;;;;;;;;;;6179992;23;20009;-80
2022/02/07 08:15:15;;;;;;;;;;;;;;;;;;6218799;23;19997;-81
2022/02/07 08:17:41;;;;;;;3.90;0.77;;;;;;;;;;6235511;23;19900;-82
2022/02/07 08:20:06;;;;;;;5.95;0.90;;;;;;;;;;6236328;23;20033;-81
2022/02/07 08:22:32;;;;;;;7.57;1.48;;;;;;;;;;6237276;23;20157;-83
2022/02/07 08:25:00;;;;;;;5.60;0.88;;;;;;;;;;6239562;23;19981;-82
2022/02/07 08:27:29;;;;;;;4.13;1.00;;;;;;;;;;6242287;23;20044;-83
2022/02/07 08:29:56;;;;;;;4.78;1.20;;;;;;;;;;6239547;23;19987;-82
2022/02/07 08:32:21;;;;;;;3.67;0.82;;;;;;;;;;6210174;23;19997;-80
2022/02/07 08:34:46;;;;;;;3.90;1.00;;;;;;;;;;6234414;23;20053;-81
2022/02/07 08:37:12;;;;;;;15.07;1.85;;;;;;;;;;6230732;23;19997;-82
2022/02/07 08:39:37;;;;;;;4.32;1.25;;;;;;;;;;6223353;23;20003;-81
2022/02/07 08:42:05;;;;;;;4.78;1.30;;;;;;;;;;6224715;23;20313;-83
2022/02/07 08:44:30;;;;;;;9.05;1.10;;;;;;;;;;6200642;23;20035;-81
2022/02/07 08:46:56;;;;;;;5.85;1.27;;;;;;;;;;6232651;23;20391;-82
2022/02/07 08:49:21;;;;;;;6.47;1.33;;;;;;;;;;6232937;23;20001;-82
2022/02/07 08:51:47;;;;;;;10.43;1.15;;;;;;;;;;6233967;23;20001;-82
2022/02/07 08:54:19;;;;;;;5.60;1.50;;;;;;;;;;6234716;23;20007;-81
2022/02/07 08:56:51;;;;;;;8.35;1.58;;;;;;;;;;6229519;23;20071;-81
2022/02/07 08:59:19;;;;;;;5.32;1.20;;;;;;;;;;6204437;23;20426;-81
2022/02/07 09:02:12;;;;;;;10.65;1.67;;;;;;;;;;6231895;23;19992;-82
2022/02/07 09:07:15;;;;;;;11.90;3.17;;;;;;;;;;6267589;23;20063;-82
2022/02/07 09:09:43;;;;;;;6.28;1.25;;;;;;;;;;6266828;23;19996;-80
2022/02/07 09:12:12;;;;;;;4.90;1.27;;;;;;;;;;6269693;23;20004;-82
2022/02/07 09:14:44;;;;;;;9.27;2.13;;;;;;;;;;6245823;23;20010;-81
2022/02/07 09:22:19;;;;;;;12.43;1.52;;;;;;;;;;6241767;22;20012;-83
2022/02/07 09:24:45;;;;;;;7.07;1.33;;;;;;;;;;6225221;22;20052;-84
2022/02/07 09:27:10;;;;;;;8.43;1.50;;;;;;;;;;6247219;23;19983;-82
2022/02/07 09:29:38;;;;;;;10.88;1.55;;;;;;;;;;6245243;23;20049;-83
2022/02/07 09:32:11;;;;;;;7.10;1.20;;;;;;;;;;6273290;23;19976;-83
2022/02/07 09:34:37;;;;;;;6.38;1.38;;;;;;;;;;6246584;23;19992;-84
2022/02/07 09:37:02;;;;;;;16.77;2.25;;;;;;;;;;6273298;23;20007;-83
2022/02/07 09:39:30;;;;;;;13.55;1.73;;;;;;;;;;6274193;22;20011;-83
2022/02/07 09:42:03;;;;;;;17.70;2.20;;;;;;;;;;6274895;23;19988;-83
2022/02/07 09:44:41;;;;;;;9.38;1.35;;;;;;;;;;6249005;22;20015;-82
2022/02/07 09:47:09;;;;;;;13.88;1.88;;;;;;;;;;6272284;23;19984;-82
2022/02/07 09:49:35;;;;;;;15.85;1.98;;;;;;;;;;6244362;23;19996;-83
2022/02/07 09:52:04;;;;;;;9.77;1.10;;;;;;;;;;6269787;23;20377;-84
2022/02/07 09:54:29;;;;;;;7.03;1.42;;;;;;;;;;6268614;23;19996;-83
2022/02/07 09:56:55;;;;;;;8.68;2.47;;;;;;;;;;6243463;23;20052;-82
2022/02/07 09:59:27;;;;;;;8.20;1.73;;;;;;;;;;6242623;23;20433;-82
2022/02/07 10:01:55;;;;;;;10.45;1.42;;;;;;;;;;6269566;23;19988;-82
2022/02/07 10:04:25;;;;;;;9.85;1.58;;;;;;;;;;6255511;23;20001;-79
2022/02/07 10:15:26;;;;;;;7.20;1.50;;;;;;;;;;6270613;23;20007;-81
2022/02/07 10:17:31;;;;;;;6.97;1.17;;;;;;;;;;6251514;22;20003;-82
2022/02/07 10:39:34;;;;;;;11.45;1.63;;;;;;;;;;6179949;23;20000;-82
2022/02/07 10:42:56;;;;;;;10.82;1.40;;;;;;;;;;6263689;23;19988;-83
2022/02/07 10:44:49;;;;;;;8.50;1.25;;;;;;;;;;6246713;23;20000;-80
2022/02/07 10:47:23;;;;;;;;;;;;;;;;;;6259535;23;19992;-82
2022/02/07 10:49:59;;;;;;;18.05;1.90;;;;;;;;;;6228049;23;19899;-80
2022/02/07 10:52:25;;;;;;;8.27;1.73;;;;;;;;;;6226887;23;20056;-80
2022/02/07 10:54:50;;;;;;;10.50;1.63;;;;;;;;;;6253838;23;20006;-82
2022/02/07 10:57:16;;;;;;;9.07;1.67;;;;;;;;;;6255094;23;20341;-81
2022/02/07 10:59:41;;;;;;;14.82;1.85;;;;;;;;;;6253245;23;20007;-80
2022/02/07 11:02:41;;;;;;;11.52;1.58;;;;;;;;;;6252259;23;19993;-81
2022/02/07 11:05:11;;;;;;;11.38;1.60;;;;;;;;;;6240785;23;19980;-82
2022/02/07 11:07:36;;;;;;;11.80;1.75;;;;;;;;;;6237568;23;20023;-82
2022/02/07 11:10:23;;;;;;;12.65;2.67;;;;;;;;;;6266662;23;19989;-82
2022/02/07 11:15:40;;;;;;;11.32;2.20;;;;;;;;;;6276680;22;20038;-82
2022/02/07 11:20:49;;;;;;;12.20;2.03;;;;;;;;;;6259312;23;20079;-81
2022/02/07 11:23:32;;;;;;;14.32;2.08;;;;;;;;;;6251974;23;20016;-79
2022/02/07 11:26:07;;;;;;;17.10;2.15;;;;;;;;;;6249767;23;20003;-80
2022/02/07 11:28:40;;;;;;;13.55;2.22;;;;;;;;;;6251721;23;19996;-80
2022/02/07 11:31:06;;;;;;;14.20;1.98;;;;;;;;;;6253622;23;19996;-80
2022/02/07 11:34:07;;;;;;;10.85;2.05;;;;;;;;;;6251371;23;20452;-81
2022/02/07 11:36:37;;;;;;;12.85;2.65;;;;;;;;;;6250473;23;19996;-80
2022/02/07 11:39:07;;;;;;;16.40;2.03;;;;;;;;;;6251670;23;20049;-80
2022/02/07 11:41:51;;;;;;;14.48;2.30;;;;;;;;;;6223096;23;20003;-80
2022/02/07 11:44:16;;;;;;;15.07;1.85;;;;;;;;;;6247564;23;20127;-80
2022/02/07 11:46:42;;;;;;;8.73;1.50;;;;;;;;;;6246256;23;19999;-80
2022/02/07 11:49:08;;;;;;;18.25;4.30;;;;;;;;;;6218712;23;20011;-81
2022/02/07 11:51:37;;;;;;;13.55;1.98;;;;;;;;;;6246033;23;20066;-80
2022/02/07 11:54:06;;;;;;;8.80;1.83;;;;;;;;;;6247455;23;19996;-80
2022/02/07 12:01:47;;;;;;;14.18;2.17;;;;;;;;;;6251059;23;20043;-81
2022/02/07 12:04:23;;;;;;;15.13;2.28;;;;;;;;;;6251220;23;20004;-80
2022/02/07 12:07:02;;;;;;;16.55;2.53;;;;;;;;;;6225024;23;20364;-79
2022/02/07 12:09:30;;;;;;;10.70;2.08;;;;;;;;;;6223717;23;20004;-81
2022/02/07 12:11:55;;;;;;;13.43;2.85;;;;;;;;;;6224010;23;20066;-79
2022/02/07 12:14:30;;;;;;;12.77;1.98;;;;;;;;;;6222802;23;19996;-79
2022/02/07 12:16:55;;;;;;;17.75;2.70;;;;;;;;;;6223373;23;20055;-80
2022/02/07 12:19:33;;;;;;;12.32;2.58;;;;;;;;;;6250107;23;20003;-80
2022/02/07 12:22:10;;;;;;;13.15;2.38;;;;;;;;;;6250414;23;20083;-81
2022/02/07 12:24:55;;;;;;;23.08;2.80;;;;;;;;;;6250492;23;20015;-79
2022/02/07 12:27:21;;;;;;;15.95;2.65;;;;;;;;;;6223105;23;20035;-80
2022/02/07 12:30:31;;;;;;;19.70;2.70;;;;;;;;;;6222001;23;20000;-79
2022/02/07 12:32:35;;;;;;;22.73;2.80;;;;;;;;;;6241325;23;20742;-81
2022/02/07 12:35:00;;;;;;;17.48;3.00;;;;;;;;;;6249630;23;19992;-80
2022/02/07 12:37:25;;;;;;;18.42;3.47;;;;;;;;;;6249535;23;20444;-80
2022/02/07 12:39:50;;;;;;;19.95;2.95;;;;;;;;;;6223163;23;20019;-79
2022/02/07 12:42:16;;;;;;;16.60;2.58;;;;;;;;;;6247917;23;19992;-80
2022/02/07 12:44:41;;;;;;;10.35;2.42;;;;;;;;;;6251271;23;20447;-80
2022/02/07 12:47:09;;;;;;;19.23;3.10;;;;;;;;;;6250467;23;20365;-81
2022/02/07 12:49:35;;;;;;;9.15;2.30;;;;;;;;;;6250272;23;20008;-81
2022/02/07 12:52:00;;;;;;;15.90;2.47;;;;;;;;;;6218546;23;20102;-82
2022/02/07 12:54:26;;;;;;;14.50;2.70;;;;;;;;;;6245297;23;19996;-81
2022/02/07 12:56:58;;;;;;;11.10;2.45;;;;;;;;;;6219272;23;20003;-80
2022/02/07 12:59:23;;;;;;;14.82;2.30;;;;;;;;;;6245275;23;19992;-80
2022/02/07 13:01:49;;;;;;;13.65;2.70;;;;;;;;;;6244986;23;19992;-81
2022/02/07 13:04:15;;;;;;;15.75;3.15;;;;;;;;;;6245242;23;20499;-82
2022/02/07 13:06:43;;;;;;;15.38;2.80;;;;;;;;;;6244858;23;20006;-82
2022/02/07 13:09:20;;;;;;;12.90;2.15;;;;;;;;;;6246739;23;20008;-80
2022/02/07 13:11:48;;;;;;;8.82;2.00;;;;;;;;;;6248921;23;20004;-79
2022/02/07 13:14:14;;;;;;;14.32;3.03;;;;;;;;;;6220847;23;20071;-79
2022/02/07 13:16:40;;;;;;;16.60;2.92;;;;;;;;;;6248404;23;20061;-80
2022/02/07 13:19:10;;;;;;;11.63;1.50;;;;;;;;;;6249321;23;20457;-81
2022/02/07 13:21:39;;;;;;;12.93;1.95;;;;;;;;;;6250557;23;20441;-81
2022/02/07 13:24:08;;;;;;;18.20;3.17;;;;;;;;;;6249574;23;20000;-79
2022/02/07 13:26:33;;;;;;;12.57;2.38;;;;;;;;;;6220711;23;19996;-80
2022/02/07 13:28:59;;;;;;;9.52;2.05;;;;;;;;;;6245357;23;20000;-81
2022/02/07 13:31:27;;;;;;;15.93;2.70;;;;;;;;;;6248346;23;20385;-79
2022/02/07 13:33:52;;;;;;;15.48;2.75;;;;;;;;;;6222022;23;20033;-79
2022/02/07 13:36:25;;;;;;;18.65;2.67;;;;;;;;;;6248293;23;20000;-80
2022/02/07 13:39:01;;;;;;;18.55;2.67;;;;;;;;;;6220857;23;19996;-79
2022/02/07 13:41:26;;;;;;;18.40;2.78;;;;;;;;;;6249386;23;19988;-80
2022/02/07 13:43:51;;;;;;;12.45;2.03;;;;;;;;;;6249271;23;20010;-80
2022/02/07 13:46:17;;;;;;;14.18;2.25;;;;;;;;;;6248117;23;20000;-80
2022/02/07 13:48:45;;;;;;;11.55;1.75;;;;;;;;;;6248917;23;20023;-81
2022/02/07 13:51:10;;;;;;;6.78;1.60;;;;;;;;;;6219132;23;20011;-80
2022/02/07 13:53:38;;;;;;;6.15;1.20;;;;;;;;;;6245816;23;20333;-78
2022/02/07 13:56:03;;;;;;;8.35;1.70;;;;;;;;;;6247089;23;19999;-82
2022/02/07 13:58:38;;;;;;;8.05;1.30;;;;;;;;;;6244900;23;19996;-82
2022/02/07 14:01:03;;;;;;;6.85;1.23;;;;;;;;;;6246133;23;20003;-80
2022/02/07 14:03:31;;;;;;;6.75;1.20;;;;;;;;;;6246863;23;20072;-80
2022/02/07 14:05:58;;;;;;;7.00;1.10;;;;;;;;;;6248263;23;20050;-80
2022/02/07 14:08:33;;;;;;;7.13;1.20;;;;;;;;;;6220549;23;20034;-80
2022/02/07 14:10:58;;;;;;;5.88;1.20;;;;;;;;;;6217663;23;20340;-81
2022/02/07 14:13:24;;;;;;;11.75;2.33;;;;;;;;;;6217696;23;20000;-81
2022/02/07 14:15:49;;;;;;;7.15;1.10;;;;;;;;;;6244081;23;20465;-82
2022/02/07 14:18:19;;;;;;;16.50;4.53;;;;;;;;;;6245274;23;20007;-82
2022/02/07 14:20:45;;;;;;;8.73;1.60;;;;;;;;;;6217489;23;20067;-80
2022/02/07 14:23:12;;;;;;;6.35;1.45;;;;;;;;;;6244006;23;19996;-82
2022/02/07 14:25:37;;;;;;;6.72;1.42;;;;;;;;;;6217325;23;20027;-81
2022/02/07 14:28:03;;;;;;;9.43;1.63;;;;;;;;;;6244043;23;20418;-79
2022/02/07 14:30:30;;;;;;;8.43;1.75;;;;;;;;;;6244329;23;20220;-80
2022/02/07 14:32:56;;;;;;;9.70;1.40;;;;;;;;;;6245971;23;20448;-81
2022/02/07 14:35:21;;;;;;;11.25;1.65;;;;;;;;;;6247009;23;19996;-80
2022/02/07 14:37:48;;;;;;;8.05;1.73;;;;;;;;;;6220537;23;20066;-80
2022/02/07 14:40:13;;;;;;;9.00;1.67;;;;;;;;;;6221161;23;20365;-81
2022/02/07 14:42:39;;;;;;;9.52;1.20;;;;;;;;;;6247254;23;20075;-79
2022/02/07 14:45:14;;;;;;;6.95;1.00;;;;;;;;;;6247344;23;20027;-79
2022/02/07 14:50:10;;;;;;;4.88;0.90;;;;;;;;;;6247499;23;20002;-80
2022/02/07 14:52:36;;;;;;;5.47;0.90;;;;;;;;;;6247350;23;19992;-82
2022/02/07 14:55:02;;;;;;;2.92;0.65;;;;;;;;;;6247732;23;20000;-80
2022/02/07 14:57:28;;;;;;;5.75;0.80;;;;;;;;;;6247500;23;20441;-80
2022/02/07 14:59:53;;;;;;;2.58;0.88;;;;;;;;;;6247006;23;19993;-79
2022/02/07 15:02:20;;;;;;;3.28;0.60;;;;;;;;;;6246524;23;19996;-79
2022/02/07 15:04:46;;;;;;;4.47;0.90;;;;;;;;;;6246804;23;20027;-79
2022/02/07 15:07:12;;;;;;;7.97;1.02;;;;;;;;;;6219841;23;20437;-79
2022/02/07 15:09:37;;;;;;;5.43;0.90;;;;;;;;;;6246300;23;20004;-80
2022/02/07 15:12:02;;;;;;;3.35;0.90;;;;;;;;;;6246424;23;20001;-80
2022/02/07 15:14:28;;;;;;;6.53;1.00;;;;;;;;;;6219236;23;20273;-80
2022/02/07 15:16:53;;;;;;;5.43;0.80;;;;;;;;;;6246820;23;20227;-79
2022/02/07 15:19:18;;;;;;;9.50;1.45;;;;;;;;;;6246471;23;20365;-79
2022/02/07 15:21:43;;;;;;;2.45;0.75;;;;;;;;;;6246939;23;19988;-80
2022/02/07 15:24:09;;;;;;;3.78;0.82;;;;;;;;;;6246465;23;19996;-80
2022/02/07 15:26:35;;;;;;;7.93;1.10;;;;;;;;;;6219460;23;20008;-80
2022/02/07 15:29:00;;;;;;;6.93;1.88;;;;;;;;;;6247206;23;20002;-80
2022/02/07 15:31:30;;;;;;;4.75;0.95;;;;;;;;;;6248030;23;20328;-79
2022/02/07 15:33:56;;;;;;;6.93;1.65;;;;;;;;;;6247907;23;19996;-79
2022/02/07 15:36:24;;;;;;;7.00;1.42;;;;;;;;;;6249830;23;20022;-80
2022/02/07 15:38:49;;;;;;;4.80;1.55;;;;;;;;;;6248256;23;20441;-80
2022/02/07 15:41:15;;;;;;;10.18;1.73;;;;;;;;;;6248562;23;19999;-80
2022/02/07 15:43:41;;;;;;;10.68;2.83;;;;;;;;;;6248055;23;19996;-80
2022/02/07 15:46:06;;;;;;;12.60;1.15;;;;;;;;;;6248374;23;20337;-79
2022/02/07 15:48:33;;;;;;;11.40;1.98;;;;;;;;;;6221483;23;20007;-80
2022/02/07 15:50:59;;;;;;;10.18;2.35;;;;;;;;;;6248601;23;20000;-79
2022/02/07 15:53:25;;;;;;;9.15;1.40;;;;;;;;;;6220175;23;20448;-78
2022/02/07 15:55:50;;;;;;;6.10;1.52;;;;;;;;;;6220791;23;20006;-79
2022/02/07 15:58:16;;;;;;;8.45;1.75;;;;;;;;;;6221915;23;20437;-78
2022/02/07 16:00:41;;;;;;;12.35;1.40;;;;;;;;;;6221912;23;20027;-78
2022/02/07 16:03:07;;;;;;;12.88;1.60;;;;;;;;;;6222238;23;20003;-80
2022/02/07 16:05:32;;;;;;;9.00;1.67;;;;;;;;;;6249434;23;19996;-79
2022/02/07 16:07:58;;;;;;;17.92;1.75;;;;;;;;;;6221448;23;20341;-80
2022/02/07 16:10:24;;;;;;;10.85;1.90;;;;;;;;;;6220581;23;20027;-79
2022/02/07 16:12:49;;;;;;;14.57;1.95;;;;;;;;;;6247441;23;20007;-81
2022/02/07 16:15:15;;;;;;;11.05;1.70;;;;;;;;;;6248300;23;19996;-82
2022/02/07 16:17:41;;;;;;;11.13;1.63;;;;;;;;;;6248642;23;20092;-79
2022/02/07 16:20:06;;;;;;;16.10;1.88;;;;;;;;;;6246762;23;20023;-78
2022/02/07 16:22:32;;;;;;;14.68;1.35;;;;;;;;;;6246857;23;19992;-77
2022/02/07 16:24:57;;;;;;;8.10;1.33;;;;;;;;;;6248336;23;20050;-79
2022/02/07 16:27:23;;;;;;;8.82;1.80;;;;;;;;;;6248353;23;20004;-79
2022/02/07 16:29:51;;;;;;;10.07;1.60;;;;;;;;;;6220879;23;19996;-80
2022/02/07 16:32:18;;;;;;;10.02;1.40;;;;;;;;;;6247854;23;20000;-78
2022/02/07 16:34:43;;;;;;;9.77;1.50;;;;;;;;;;6221058;23;20008;-80
2022/02/07 16:37:08;;;;;;;11.13;1.40;;;;;;;;;;6229503;22;20393;-76
2022/02/07 16:39:33;;;;;;;5.45;1.65;;;;;;;;;;6215976;23;20395;-76
2022/02/07 16:41:59;;;;;;;7.70;1.88;;;;;;;;;;6216044;23;20000;-76
2022/02/07 16:44:25;;;;;;;8.32;1.60;;;;;;;;;;6216220;23;20003;-76
2022/02/07 16:46:51;;;;;;;7.25;1.25;;;;;;;;;;6219963;23;20496;-76
2022/02/07 16:49:35;;;;;;;7.72;1.50;;;;;;;;;;6215866;23;20031;-76
2022/02/07 16:52:01;;;;;;;10.52;2.50;;;;;;;;;;6217821;23;20004;-77
2022/02/07 16:54:27;;;;;;;9.00;1.70;;;;;;;;;;6218077;23;20021;-77
2022/02/07 16:56:54;;;;;;;10.75;1.75;;;;;;;;;;6217496;23;20023;-77
2022/02/07 16:59:20;;;;;;;9.85;2.13;;;;;;;;;;6215363;23;19997;-76
2022/02/07 17:01:51;;;;;;;9.98;1.55;;;;;;;;;;6225134;23;19989;-76
2022/02/07 17:04:20;;;;;;;8.57;1.83;;;;;;;;;;6231583;23;20000;-77
2022/02/07 17:06:45;;;;;;;9.73;2.33;;;;;;;;;;6235625;23;20023;-77
2022/02/07 17:09:10;;;;;;;9.68;1.77;;;;;;;;;;6234362;23;20001;-77
2022/02/07 17:11:36;;;;;;;8.98;1.88;;;;;;;;;;6224626;23;20072;-76
2022/02/07 17:14:01;;;;;;;9.65;1.35;;;;;;;;;;6225185;23;19996;-77
2022/02/07 17:16:26;;;;;;;6.60;1.20;;;;;;;;;;6219119;23;19997;-76
2022/02/07 17:18:51;;;;;;;9.82;1.52;;;;;;;;;;6229724;23;20337;-76
2022/02/07 17:21:19;;;;;;;11.18;1.48;;;;;;;;;;6226992;23;20445;-76
2022/02/07 17:23:44;;;;;;;9.63;1.60;;;;;;;;;;6223431;23;20023;-76
2022/02/07 17:26:09;;;;;;;11.30;1.38;;;;;;;;;;6219062;23;19996;-76
2022/02/07 17:28:35;;;;;;;9.88;1.35;;;;;;;;;;6224943;23;19992;-76
2022/02/07 17:31:03;;;;;;;9.30;1.10;;;;;;;;;;6221315;23;20019;-76
2022/02/07 17:33:28;;;;;;;2.75;0.93;;;;;;;;;;6219052;23;20008;-75
2022/02/07 17:35:54;;;;;;;11.82;1.73;;;;;;;;;;6221674;23;20059;-76
2022/02/07 17:38:25;;;;;;;6.60;1.25;;;;;;;;;;6215835;23;20051;-76
2022/02/07 17:40:52;;;;;;;4.60;1.45;;;;;;;;;;6215391;23;20000;-76
2022/02/07 17:43:26;;;;;;;8.32;2.13;;;;;;;;;;6215101;23;19996;-75
2022/02/07 17:45:51;;;;;;;4.55;1.15;;;;;;;;;;6214981;23;19993;-76